createdAt,value
2018-10-03T00:01:56.598Z,3.93
2018-10-03T00:04:24.779Z,4.20
2018-10-03T00:06:52.973Z,4.60
2018-10-03T00:09:21.328Z,3.73
2018-10-03T00:11:49.507Z,4.33
2018-10-03T00:14:17.674Z,3.80
2018-10-03T00:16:45.907Z,3.83
2018-10-03T00:19:14.078Z,3.93
2018-10-03T00:21:42.463Z,3.70
2018-10-03T00:24:10.625Z,4.00
2018-10-03T00:26:38.809Z,3.47
2018-10-03T00:29:06.953Z,3.77
2018-10-03T00:31:35.567Z,5.33
2018-10-03T00:34:03.720Z,4.20
2018-10-03T00:36:31.981Z,4.23
2018-10-03T00:39:00.127Z,4.27
2018-10-03T00:41:28.259Z,3.67
2018-10-03T00:43:56.447Z,4.97
2018-10-03T00:46:24.626Z,3.30
2018-10-03T00:48:52.795Z,3.87
2018-10-03T00:51:20.947Z,3.90
2018-10-03T00:53:49.073Z,4.00
2018-10-03T00:56:17.251Z,4.83
2018-10-03T00:58:45.423Z,4.37
2018-10-03T01:01:13.606Z,4.40
2018-10-03T01:03:41.775Z,3.57
2018-10-03T01:06:09.980Z,4.50
2018-10-03T01:08:38.171Z,3.53
2018-10-03T01:11:06.358Z,4.53
2018-10-03T01:13:34.575Z,3.53
2018-10-03T01:16:02.811Z,3.83
2018-10-03T01:18:30.941Z,3.73
2018-10-03T01:20:59.220Z,3.10
2018-10-03T01:23:27.425Z,3.57
2018-10-03T01:25:55.729Z,3.60
2018-10-03T01:28:23.883Z,3.90
2018-10-03T01:30:52.735Z,3.60
2018-10-03T01:33:20.998Z,3.97
2018-10-03T01:35:49.242Z,4.07
2018-10-03T01:38:17.498Z,4.53
2018-10-03T01:40:45.595Z,4.00
2018-10-03T01:43:13.740Z,4.07
2018-10-03T01:45:41.940Z,4.07
2018-10-03T01:48:10.089Z,3.60
2018-10-03T01:50:38.272Z,3.93
2018-10-03T01:53:06.589Z,4.13
2018-10-03T01:55:41.346Z,3.13
2018-10-03T01:58:09.495Z,3.40
2018-10-03T02:00:37.677Z,3.93
2018-10-03T02:03:05.935Z,4.27
2018-10-03T02:05:34.552Z,3.70
2018-10-03T02:08:02.724Z,3.83
2018-10-03T02:10:31.018Z,3.93
2018-10-03T02:12:59.155Z,3.57
2018-10-03T02:15:27.323Z,3.27
2018-10-03T02:17:55.429Z,4.27
2018-10-03T02:20:23.596Z,3.50
2018-10-03T02:22:51.744Z,4.33
2018-10-03T02:25:19.895Z,4.20
2018-10-03T02:27:48.085Z,3.97
2018-10-03T02:30:16.254Z,4.20
2018-10-03T02:32:44.403Z,3.50
2018-10-03T02:35:12.552Z,3.20
2018-10-03T02:37:40.788Z,3.50
2018-10-03T02:40:08.949Z,4.57
2018-10-03T02:42:37.180Z,3.67
2018-10-03T02:45:05.519Z,3.90
2018-10-03T02:47:33.841Z,3.67
2018-10-03T02:50:02.034Z,3.20
2018-10-03T02:52:30.244Z,4.00
2018-10-03T02:54:58.639Z,4.27
2018-10-03T02:57:26.827Z,3.40
2018-10-03T02:59:54.986Z,3.77
2018-10-03T03:02:23.160Z,3.90
2018-10-03T03:04:51.377Z,3.57
2018-10-03T03:07:19.661Z,3.20
2018-10-03T03:09:47.835Z,3.03
2018-10-03T03:12:16.061Z,2.80
2018-10-03T03:14:44.295Z,3.20
2018-10-03T03:17:12.453Z,3.87
2018-10-03T03:19:40.575Z,4.67
2018-10-03T03:22:08.749Z,4.17
2018-10-03T03:24:36.929Z,4.13
2018-10-03T03:27:05.087Z,3.40
2018-10-03T03:29:39.981Z,3.40
2018-10-03T03:32:08.188Z,3.70
2018-10-03T03:34:36.370Z,3.40
2018-10-03T03:37:04.561Z,4.47
2018-10-03T03:39:32.751Z,5.27
2018-10-03T03:42:00.989Z,4.63
2018-10-03T03:44:29.264Z,3.67
2018-10-03T03:46:57.502Z,3.83
2018-10-03T03:49:25.729Z,3.40
2018-10-03T03:51:54.023Z,3.60
2018-10-03T03:54:22.278Z,3.50
2018-10-03T03:56:50.443Z,3.33
2018-10-03T03:59:18.723Z,3.23
2018-10-03T04:01:47.013Z,3.47
2018-10-03T04:04:15.289Z,3.13
2018-10-03T04:06:43.459Z,3.90
2018-10-03T04:09:11.695Z,3.20
2018-10-03T04:11:39.931Z,3.10
2018-10-03T04:14:08.196Z,3.83
2018-10-03T04:16:36.383Z,4.10
2018-10-03T04:19:04.658Z,4.10
2018-10-03T04:21:38.382Z,3.73
2018-10-03T04:24:07.787Z,4.00
2018-10-03T04:26:35.949Z,3.63
2018-10-03T04:29:04.654Z,3.73
2018-10-03T04:31:33.726Z,3.03
2018-10-03T04:34:01.937Z,4.20
2018-10-03T04:36:30.156Z,4.53
2018-10-03T04:38:58.352Z,4.73
2018-10-03T04:41:26.544Z,3.77
2018-10-03T04:43:54.700Z,4.07
2018-10-03T04:46:23.082Z,3.50
2018-10-03T04:48:51.449Z,3.53
2018-10-03T04:51:19.960Z,4.67
2018-10-03T04:53:48.175Z,3.43
2018-10-03T04:56:17.106Z,3.77
2018-10-03T04:58:45.286Z,4.07
2018-10-03T05:01:13.447Z,4.00
2018-10-03T05:03:41.686Z,3.50
2018-10-03T05:06:10.039Z,4.37
2018-10-03T05:08:38.376Z,3.60
2018-10-03T05:11:06.701Z,3.20
2018-10-03T05:13:34.858Z,3.37
2018-10-03T05:16:03.066Z,4.00
2018-10-03T05:18:31.314Z,4.13
2018-10-03T05:20:59.584Z,4.20
2018-10-03T05:23:27.839Z,4.07
2018-10-03T05:25:56.075Z,4.10
2018-10-03T05:28:24.284Z,2.87
2018-10-03T05:30:52.530Z,3.43
2018-10-03T05:33:20.768Z,3.47
2018-10-03T05:35:48.934Z,3.20
2018-10-03T05:38:17.089Z,2.90
2018-10-03T05:40:45.226Z,3.37
2018-10-03T05:43:13.403Z,3.60
2018-10-03T05:45:42.235Z,3.57
2018-10-03T05:48:10.407Z,3.17
2018-10-03T05:50:38.567Z,3.20
2018-10-03T05:53:06.815Z,3.73
2018-10-03T05:55:35.047Z,4.60
2018-10-03T05:58:03.292Z,3.27
2018-10-03T06:00:32.853Z,3.80
2018-10-03T06:03:01.073Z,3.07
2018-10-03T06:05:29.254Z,3.53
2018-10-03T06:07:57.422Z,3.47
2018-10-03T06:10:25.619Z,3.50
2018-10-03T06:12:53.804Z,3.73
2018-10-03T06:15:21.958Z,3.80
2018-10-03T06:17:50.132Z,3.17
2018-10-03T06:20:18.364Z,4.67
2018-10-03T06:22:46.527Z,3.30
2018-10-03T06:25:14.680Z,3.23
2018-10-03T06:27:42.912Z,3.77
2018-10-03T06:30:11.105Z,3.70
2018-10-03T06:32:39.221Z,3.10
2018-10-03T06:35:07.385Z,3.93
2018-10-03T06:37:35.508Z,3.27
2018-10-03T06:40:03.704Z,3.40
2018-10-03T06:42:31.890Z,2.87
2018-10-03T06:45:00.226Z,4.17
2018-10-03T06:47:28.892Z,4.20
2018-10-03T06:49:57.071Z,3.43
2018-10-03T06:52:25.281Z,3.60
2018-10-03T06:54:53.533Z,3.70
2018-10-03T06:57:21.742Z,3.10
2018-10-03T06:59:49.908Z,4.00
2018-10-03T07:02:18.057Z,3.90
2018-10-03T07:04:46.200Z,4.00
2018-10-03T07:07:14.316Z,3.60
2018-10-03T07:09:42.490Z,3.30
2018-10-03T07:12:10.670Z,3.43
2018-10-03T07:14:38.851Z,3.20
2018-10-03T07:17:07.411Z,2.87
2018-10-03T07:19:35.589Z,2.83
2018-10-03T07:22:03.822Z,2.67
2018-10-03T07:24:31.978Z,3.77
2018-10-03T07:27:00.152Z,3.57
2018-10-03T07:29:28.532Z,3.47
2018-10-03T07:31:56.675Z,2.87
2018-10-03T07:34:24.958Z,2.87
2018-10-03T07:36:53.158Z,3.10
2018-10-03T07:39:22.207Z,3.37
2018-10-03T07:41:50.574Z,2.47
2018-10-03T07:44:18.815Z,3.33
2018-10-03T07:46:47.048Z,3.63
2018-10-03T07:49:15.231Z,3.07
2018-10-03T07:51:43.404Z,3.90
2018-10-03T07:54:11.654Z,3.30
2018-10-03T07:56:39.835Z,2.80
2018-10-03T07:59:08.245Z,3.50
2018-10-03T08:01:36.207Z,2.93
2018-10-03T08:04:04.391Z,3.30
2018-10-03T08:06:32.682Z,2.53
2018-10-03T08:09:00.883Z,2.93
2018-10-03T08:11:29.011Z,3.00
2018-10-03T08:13:57.201Z,3.10
2018-10-03T08:16:25.419Z,2.27
2018-10-03T08:18:53.617Z,2.87
2018-10-03T08:21:21.827Z,3.20
2018-10-03T08:23:50.058Z,2.97
2018-10-03T08:26:18.286Z,3.87
2018-10-03T08:28:46.478Z,3.00
2018-10-03T08:31:14.689Z,2.33
2018-10-03T08:33:42.889Z,2.63
2018-10-03T08:36:11.029Z,3.20
2018-10-03T08:38:39.305Z,3.03
2018-10-03T08:41:07.497Z,2.90
2018-10-03T08:43:35.707Z,2.43
2018-10-03T08:46:03.981Z,3.00
2018-10-03T08:48:32.304Z,3.17
2018-10-03T08:51:00.502Z,2.17
2018-10-03T08:53:28.687Z,2.67
2018-10-03T08:55:57.033Z,2.70
2018-10-03T08:58:25.401Z,2.90
2018-10-03T09:00:53.477Z,4.97
2018-10-03T09:03:21.726Z,3.10
2018-10-03T09:05:50.005Z,4.43
2018-10-03T09:08:18.249Z,2.97
2018-10-03T09:10:48.364Z,2.90
2018-10-03T09:13:16.556Z,3.37
2018-10-03T09:15:44.730Z,2.10
2018-10-03T09:18:12.892Z,1.93
2018-10-03T09:20:41.079Z,2.30
2018-10-03T09:23:09.366Z,1.90
2018-10-03T09:25:37.582Z,2.40
2018-10-03T09:28:05.941Z,2.70
2018-10-03T09:30:34.226Z,2.50
2018-10-03T09:33:02.476Z,2.50
2018-10-03T09:35:31.202Z,2.97
2018-10-03T09:37:59.440Z,2.73
2018-10-03T09:40:27.710Z,3.53
2018-10-03T09:42:55.989Z,2.57
2018-10-03T09:45:24.164Z,3.13
2018-10-03T09:47:52.450Z,2.60
2018-10-03T09:50:20.676Z,2.27
2018-10-03T09:52:48.872Z,2.73
2018-10-03T09:55:17.173Z,2.47
2018-10-03T09:57:45.372Z,3.23
2018-10-03T10:00:13.689Z,3.07
2018-10-03T10:02:41.872Z,3.00
2018-10-03T10:05:10.028Z,1.73
2018-10-03T10:07:38.408Z,2.33
2018-10-03T10:10:06.684Z,2.00
2018-10-03T10:12:34.902Z,2.80
2018-10-03T10:15:03.191Z,3.83
2018-10-03T10:17:31.497Z,2.10
2018-10-03T10:19:59.725Z,2.60
2018-10-03T10:22:27.960Z,2.93
2018-10-03T10:24:56.133Z,2.57
2018-10-03T10:27:24.281Z,2.90
2018-10-03T10:29:52.411Z,2.27
2018-10-03T10:32:20.692Z,2.60
2018-10-03T10:34:48.940Z,2.90
2018-10-03T10:37:17.142Z,2.27
2018-10-03T10:39:45.420Z,2.23
2018-10-03T10:42:13.698Z,2.70
2018-10-03T10:44:41.919Z,2.57
2018-10-03T10:47:10.094Z,2.07
2018-10-03T10:49:38.275Z,2.70
2018-10-03T10:52:06.539Z,2.07
2018-10-03T10:54:34.874Z,2.23
2018-10-03T10:57:03.098Z,2.53
2018-10-03T10:59:31.597Z,2.60
2018-10-03T11:02:00.552Z,2.23
2018-10-03T11:04:28.766Z,2.37
2018-10-03T11:06:57.949Z,1.80
2018-10-03T11:09:26.460Z,3.27
2018-10-03T11:11:54.763Z,2.57
2018-10-03T11:14:23.001Z,1.90
2018-10-03T11:16:52.091Z,2.30
2018-10-03T11:19:20.341Z,2.10
2018-10-03T11:21:49.248Z,2.73
2018-10-03T11:24:18.122Z,2.10
2018-10-03T11:26:46.269Z,2.33
2018-10-03T11:29:14.513Z,2.20
2018-10-03T11:31:42.800Z,2.40
2018-10-03T11:34:16.247Z,2.20
2018-10-03T11:36:44.422Z,3.00
2018-10-03T11:39:12.627Z,2.43
2018-10-03T11:41:40.854Z,2.30
2018-10-03T11:44:09.099Z,2.60
2018-10-03T11:46:37.361Z,2.83
2018-10-03T11:49:05.576Z,2.60
2018-10-03T11:51:33.849Z,1.90
2018-10-03T11:54:02.767Z,2.17
2018-10-03T11:56:32.086Z,2.57
2018-10-03T11:59:01.306Z,2.63
2018-10-03T12:01:33.280Z,2.40
2018-10-03T12:04:01.690Z,2.33
2018-10-03T12:06:30.779Z,1.80
2018-10-03T12:09:05.844Z,2.57
2018-10-03T12:11:35.752Z,2.07
2018-10-03T12:14:04.303Z,2.77
2018-10-03T12:16:32.719Z,1.90
2018-10-03T12:19:00.936Z,2.03
2018-10-03T12:21:29.099Z,1.97
2018-10-03T12:23:57.800Z,2.10
2018-10-03T12:26:26.950Z,2.20
2018-10-03T12:28:55.134Z,2.13
2018-10-03T12:31:23.340Z,1.73
2018-10-03T12:33:52.822Z,1.87
2018-10-03T12:36:21.075Z,1.57
2018-10-03T12:38:49.297Z,1.60
2018-10-03T12:41:17.604Z,2.20
2018-10-03T12:43:46.165Z,1.90
2018-10-03T12:46:14.585Z,1.50
2018-10-03T12:48:42.740Z,2.00
2018-10-03T12:51:10.918Z,1.93
2018-10-03T12:53:39.160Z,1.90
2018-10-03T12:56:07.494Z,2.00
2018-10-03T12:58:42.076Z,2.30
2018-10-03T13:01:10.327Z,2.30
2018-10-03T13:03:38.763Z,1.43
2018-10-03T13:06:07.392Z,1.30
2018-10-03T13:08:35.643Z,1.40
2018-10-03T13:11:03.832Z,2.20
2018-10-03T13:13:32.107Z,2.57
2018-10-03T13:16:01.019Z,1.47
2018-10-03T13:18:32.266Z,1.13
2018-10-03T13:21:07.045Z,1.53
2018-10-03T13:23:35.349Z,1.60
2018-10-03T13:26:03.710Z,1.80
2018-10-03T13:28:31.899Z,1.53
2018-10-03T13:31:00.105Z,1.37
2018-10-03T13:34:35.408Z,1.53
2018-10-03T13:37:03.594Z,1.73
2018-10-03T13:39:31.782Z,1.57
2018-10-03T13:42:00.022Z,1.97
2018-10-03T13:44:28.770Z,2.00
2018-10-03T13:46:57.071Z,1.83
2018-10-03T13:49:25.373Z,2.00
2018-10-03T13:51:55.533Z,1.80
2018-10-03T13:54:23.814Z,1.60
2018-10-03T13:56:51.981Z,1.70
2018-10-03T13:59:20.503Z,2.13
2018-10-03T14:01:48.902Z,2.20
2018-10-03T14:04:17.070Z,2.97
2018-10-03T14:06:45.487Z,2.07
2018-10-03T14:09:13.818Z,2.27
2018-10-03T14:11:41.977Z,1.70
2018-10-03T14:14:10.263Z,1.53
2018-10-03T14:16:38.470Z,2.43
2018-10-03T14:19:16.094Z,1.90
2018-10-03T14:21:55.711Z,2.37
2018-10-03T14:24:26.195Z,1.83
2018-10-03T14:26:54.389Z,2.07
2018-10-03T14:29:22.673Z,2.20
2018-10-03T14:31:50.888Z,1.70
2018-10-03T14:34:20.201Z,2.20
2018-10-03T14:36:55.065Z,2.33
2018-10-03T14:39:23.358Z,1.63
2018-10-03T14:41:52.042Z,2.27
2018-10-03T14:44:21.289Z,1.70
2018-10-03T14:46:49.659Z,1.90
2018-10-03T14:49:18.329Z,1.80
2018-10-03T14:51:46.576Z,2.57
2018-10-03T14:54:14.893Z,1.97
2018-10-03T14:56:43.083Z,2.23
2018-10-03T14:59:12.247Z,2.63
2018-10-03T15:01:40.501Z,2.37
2018-10-03T15:04:08.701Z,2.53
2018-10-03T15:06:36.884Z,3.30
2018-10-03T15:09:07.104Z,2.40
2018-10-03T15:11:35.311Z,2.40
2018-10-03T15:14:03.781Z,2.23
2018-10-03T15:16:32.055Z,1.80
2018-10-03T15:19:00.274Z,4.07
2018-10-03T15:21:28.523Z,2.20
2018-10-03T15:23:56.799Z,1.93
2018-10-03T15:26:25.701Z,1.50
2018-10-03T15:28:53.915Z,2.03
2018-10-03T15:31:22.215Z,2.40
2018-10-03T15:33:50.419Z,2.50
2018-10-03T15:36:18.728Z,1.93
2018-10-03T15:38:46.985Z,2.60
2018-10-03T15:41:15.251Z,2.40
2018-10-03T15:43:43.556Z,2.10
2018-10-03T15:46:11.755Z,2.37
2018-10-03T15:48:40.060Z,2.30
2018-10-03T15:51:08.307Z,1.90
2018-10-03T15:53:36.462Z,2.70
2018-10-03T15:56:04.753Z,1.70
2018-10-03T15:58:32.967Z,2.17
2018-10-03T16:01:01.222Z,2.30
2018-10-03T16:03:29.397Z,2.77
2018-10-03T16:05:57.737Z,2.33
2018-10-03T16:08:26.101Z,2.20
2018-10-03T16:10:54.558Z,2.93
2018-10-03T16:13:22.774Z,1.80
2018-10-03T16:15:51.035Z,2.90
2018-10-03T16:18:19.260Z,2.20
2018-10-03T16:20:47.455Z,2.83
2018-10-03T16:23:15.779Z,3.43
2018-10-03T16:25:43.954Z,2.50
2018-10-03T16:28:12.305Z,3.37
2018-10-03T16:30:41.180Z,2.90
2018-10-03T16:33:09.500Z,3.90
2018-10-03T16:35:37.734Z,4.80
2018-10-03T16:38:05.969Z,2.83
2018-10-03T16:40:34.270Z,3.27
2018-10-03T16:43:02.524Z,2.97
2018-10-03T16:45:30.879Z,3.20
2018-10-03T16:47:59.162Z,3.03
2018-10-03T16:50:28.167Z,5.20
2018-10-03T16:52:57.431Z,5.20
2018-10-03T16:55:25.683Z,3.97
2018-10-03T16:57:54.233Z,4.83
2018-10-03T17:00:23.035Z,5.33
2018-10-03T17:02:51.221Z,4.13
2018-10-03T17:05:19.505Z,3.77
2018-10-03T17:07:47.761Z,3.07
2018-10-03T17:10:15.999Z,4.67
2018-10-03T17:12:44.275Z,4.57
2018-10-03T17:15:12.527Z,4.03
2018-10-03T17:17:40.730Z,4.17
2018-10-03T17:20:08.941Z,5.17
2018-10-03T17:22:37.741Z,3.87
2018-10-03T17:25:06.027Z,3.93
2018-10-03T17:27:34.265Z,3.17
2018-10-03T17:30:02.681Z,3.37
2018-10-03T17:32:31.021Z,3.40
2018-10-03T17:34:59.332Z,3.33
2018-10-03T17:37:27.590Z,3.20
2018-10-03T17:39:55.925Z,3.70
2018-10-03T17:42:24.285Z,3.67
2018-10-03T17:44:52.621Z,3.20
2018-10-03T17:47:21.332Z,4.00
2018-10-03T17:49:49.895Z,3.40
2018-10-03T17:52:18.294Z,2.87
2018-10-03T17:54:46.573Z,4.27
2018-10-03T17:57:14.958Z,3.33
2018-10-03T17:59:43.186Z,3.40
2018-10-03T18:02:12.888Z,2.67
2018-10-03T18:04:42.968Z,2.63
2018-10-03T18:07:11.177Z,2.73
2018-10-03T18:09:39.542Z,3.30
2018-10-03T18:12:07.783Z,2.80
2018-10-03T18:14:36.080Z,2.13
2018-10-03T18:17:04.483Z,3.23
2018-10-03T18:19:32.862Z,2.20
2018-10-03T18:22:01.705Z,3.20
2018-10-03T18:24:29.997Z,2.80
2018-10-03T18:26:58.507Z,2.80
2018-10-03T18:29:26.963Z,2.97
2018-10-03T18:31:55.267Z,2.97
2018-10-03T18:34:23.634Z,2.67
2018-10-03T18:36:51.882Z,2.90
2018-10-03T18:39:20.211Z,2.90
2018-10-03T18:41:48.795Z,3.33
2018-10-03T18:44:17.788Z,2.57
2018-10-03T18:46:46.421Z,4.23
2018-10-03T18:49:14.984Z,4.00
2018-10-03T18:51:43.306Z,2.90
2018-10-03T18:54:11.579Z,4.47
2018-10-03T18:56:40.729Z,2.63
2018-10-03T18:59:09.243Z,3.47
2018-10-03T19:01:37.534Z,2.97
2018-10-03T19:04:07.172Z,2.77
2018-10-03T19:06:35.579Z,2.30
2018-10-03T19:09:05.466Z,3.23
2018-10-03T19:11:34.443Z,2.93
2018-10-03T19:14:02.828Z,3.60
2018-10-03T19:16:31.271Z,2.97
2018-10-03T19:18:59.646Z,2.80
2018-10-03T19:21:28.060Z,2.57
2018-10-03T19:23:56.354Z,2.77
2018-10-03T19:26:24.807Z,5.37
2018-10-03T19:28:53.159Z,3.90
2018-10-03T19:31:21.739Z,2.40
2018-10-03T19:33:50.164Z,4.07
2018-10-03T19:36:18.826Z,2.90
2018-10-03T19:38:47.436Z,2.80
2018-10-03T19:41:16.157Z,2.50
2018-10-03T19:43:44.729Z,3.10
2018-10-03T19:46:13.097Z,2.73
2018-10-03T19:48:41.406Z,2.57
2018-10-03T19:51:09.831Z,3.80
2018-10-03T19:53:38.475Z,2.73
2018-10-03T19:56:06.754Z,3.70
2018-10-03T19:58:35.018Z,3.03
2018-10-03T20:01:04.664Z,3.00
2018-10-03T20:03:33.034Z,3.23
2018-10-03T20:06:01.305Z,2.80
2018-10-03T20:08:30.454Z,2.73
2018-10-03T20:10:58.733Z,2.90
2018-10-03T20:13:27.107Z,2.63
2018-10-03T20:15:55.429Z,2.40
2018-10-03T20:18:23.745Z,3.57
2018-10-03T20:20:52.375Z,2.80
2018-10-03T20:23:20.905Z,2.33
2018-10-03T20:25:49.355Z,3.83
2018-10-03T20:28:17.720Z,2.70
2018-10-03T20:30:47.018Z,3.33
2018-10-03T20:33:15.343Z,2.73
2018-10-03T20:35:43.641Z,3.00
2018-10-03T20:38:12.035Z,2.47
2018-10-03T20:40:40.445Z,2.93
2018-10-03T20:43:09.028Z,2.63
2018-10-03T20:45:37.359Z,2.97
2018-10-03T20:48:05.897Z,3.30
2018-10-03T20:50:41.211Z,2.97
2018-10-03T20:53:09.637Z,3.17
2018-10-03T20:55:37.841Z,3.00
2018-10-03T20:58:06.110Z,3.40
2018-10-03T21:00:34.533Z,2.87
2018-10-03T21:03:03.385Z,4.10
2018-10-03T21:05:31.655Z,5.40
2018-10-03T21:08:00.046Z,5.30
2018-10-03T21:10:28.297Z,2.67
2018-10-03T21:12:56.720Z,2.67
2018-10-03T21:15:24.921Z,3.27
2018-10-03T21:17:53.145Z,3.20
2018-10-03T21:20:21.312Z,2.53
2018-10-03T21:22:49.682Z,2.93
2018-10-03T21:25:17.906Z,3.10
2018-10-03T21:27:46.031Z,3.07
2018-10-03T21:30:14.268Z,3.33
2018-10-03T21:32:42.462Z,3.10
2018-10-03T21:35:10.627Z,2.60
2018-10-03T21:37:39.018Z,2.17
2018-10-03T21:40:07.151Z,2.50
2018-10-03T21:42:35.969Z,2.73
2018-10-03T21:45:04.112Z,2.90
2018-10-03T21:47:32.283Z,2.80
2018-10-03T21:50:00.463Z,3.53
2018-10-03T21:52:28.665Z,3.13
2018-10-03T21:54:56.845Z,2.63
2018-10-03T21:57:25.043Z,3.37
2018-10-03T21:59:53.226Z,2.70
2018-10-03T22:02:21.380Z,2.70
2018-10-03T22:04:49.765Z,2.50
2018-10-03T22:07:17.905Z,2.27
2018-10-03T22:09:46.083Z,2.80
2018-10-03T22:12:14.224Z,2.70
2018-10-03T22:14:42.345Z,2.90
2018-10-03T22:17:15.941Z,2.23
2018-10-03T22:19:44.075Z,2.80
2018-10-03T22:22:12.233Z,2.40
2018-10-03T22:24:40.431Z,2.47
2018-10-03T22:27:08.617Z,2.57
2018-10-03T22:29:36.826Z,4.60
2018-10-03T22:32:05.019Z,3.40
2018-10-03T22:34:33.273Z,3.57
2018-10-03T22:37:01.462Z,3.30
2018-10-03T22:39:29.675Z,2.43
2018-10-03T22:41:57.926Z,3.00
2018-10-03T22:44:26.119Z,2.97
2018-10-03T22:46:54.305Z,2.97
2018-10-03T22:49:22.485Z,2.63
2018-10-03T22:51:50.765Z,3.77
2018-10-03T22:54:19.002Z,2.47
2018-10-03T22:56:47.277Z,2.50
2018-10-03T22:59:15.379Z,2.53
2018-10-03T23:01:44.168Z,2.47
2018-10-03T23:04:12.254Z,3.40
2018-10-03T23:06:40.435Z,2.70
2018-10-03T23:09:08.619Z,3.33
2018-10-03T23:11:37.001Z,2.77
2018-10-03T23:14:05.265Z,2.30
2018-10-03T23:16:33.385Z,2.20
2018-10-03T23:19:01.832Z,2.20
2018-10-03T23:21:30.038Z,2.20
2018-10-03T23:23:58.160Z,2.90
2018-10-03T23:26:26.342Z,3.80
2018-10-03T23:28:54.551Z,2.40
2018-10-03T23:31:22.687Z,3.07
2018-10-03T23:33:50.847Z,2.73
2018-10-03T23:36:19.740Z,2.10
2018-10-03T23:38:47.913Z,2.53
2018-10-03T23:41:16.076Z,2.10
2018-10-03T23:43:44.331Z,2.83
2018-10-03T23:46:12.502Z,2.50
2018-10-03T23:48:40.659Z,2.97
2018-10-03T23:51:08.978Z,2.50
2018-10-03T23:53:37.213Z,2.13
2018-10-03T23:56:05.348Z,2.30
2018-10-03T23:58:33.508Z,2.67
